Time;durP1;ratioP1;P1;durP2;ratioP2;P2;SDS_P1;SDS_P2;PMS_P1;PMS_P2;Temp;Humidity;BMP_temperature;BMP_pressure;BME280_temperature;BME280_humidity;BME280_pressure;Samples;Min_cycle;Max_cycle;Signal;HPM_P1;HPM_P2
2024/01/27 00:00:06;;;;;;;11.27;1.30;;;4.90;99.90;;;;;;5074364;28;20051;-52
2024/01/27 00:02:31;;;;;;;9.35;1.52;;;4.90;99.90;;;;;;5091123;28;20056;-52
2024/01/27 00:04:57;;;;;;;11.70;1.67;;;4.90;99.90;;;;;;5073909;28;20386;-51
2024/01/27 00:07:25;;;;;;;13.23;1.43;;;4.80;99.90;;;;;;5075614;28;20155;-52
2024/01/27 00:09:50;;;;;;;11.63;1.23;;;4.90;99.90;;;;;;5075190;28;20055;-52
2024/01/27 00:12:16;;;;;;;6.40;1.33;;;4.90;99.90;;;;;;5075187;28;20131;-52
2024/01/27 00:14:43;;;;;;;12.77;1.43;;;4.80;99.90;;;;;;5074978;28;20127;-52
2024/01/27 00:17:09;;;;;;;;;;;4.80;99.90;;;;;;5075293;28;20048;-51
2024/01/27 00:19:34;;;;;;;7.13;1.48;;;4.80;99.90;;;;;;5075001;28;20329;-51
2024/01/27 00:22:00;;;;;;;14.30;1.87;;;4.80;99.90;;;;;;5075385;28;20427;-52
2024/01/27 00:24:26;;;;;;;14.63;2.30;;;4.80;99.90;;;;;;5074926;28;20049;-52
2024/01/27 00:26:51;;;;;;;19.70;1.90;;;4.80;99.90;;;;;;5074862;28;20091;-49
2024/01/27 00:29:17;;;;;;;11.47;1.97;;;4.80;99.90;;;;;;5074729;28;20045;-52
2024/01/27 00:31:43;;;;;;;18.47;1.90;;;4.80;99.90;;;;;;5074693;28;20067;-52
2024/01/27 00:34:08;;;;;;;10.53;1.87;;;4.80;99.90;;;;;;5074552;28;20496;-49
2024/01/27 00:36:36;;;;;;;10.50;2.23;;;4.80;99.90;;;;;;5074440;28;20045;-49
2024/01/27 00:39:03;;;;;;;10.98;1.30;;;4.70;99.90;;;;;;5074477;28;20051;-52
2024/01/27 00:41:29;;;;;;;9.88;1.50;;;4.70;99.90;;;;;;5073492;28;20098;-51
2024/01/27 00:43:54;;;;;;;13.57;1.83;;;4.80;99.90;;;;;;5073428;28;20045;-52
2024/01/27 00:46:20;;;;;;;10.17;1.30;;;4.70;99.90;;;;;;5074355;28;20045;-51
2024/01/27 00:48:46;;;;;;;12.53;1.40;;;4.70;99.90;;;;;;5074160;28;20070;-52
2024/01/27 00:51:12;;;;;;;6.20;1.27;;;4.70;99.90;;;;;;5073217;28;20044;-50
2024/01/27 00:53:38;;;;;;;10.13;1.70;;;4.70;99.90;;;;;;5074491;28;20044;-50
2024/01/27 00:56:05;;;;;;;6.97;1.60;;;4.70;99.90;;;;;;5074005;28;20044;-49
2024/01/27 00:58:31;;;;;;;7.35;1.30;;;4.70;99.90;;;;;;5073937;28;20051;-49
2024/01/27 01:00:58;;;;;;;8.23;1.65;;;4.70;99.90;;;;;;5074268;28;20052;-52
2024/01/27 01:03:24;;;;;;;;;;;4.60;99.90;;;;;;5074220;28;20135;-50
2024/01/27 01:05:49;;;;;;;7.82;1.77;;;4.60;99.90;;;;;;5073352;28;19966;-50
2024/01/27 01:08:15;;;;;;;15.57;1.87;;;4.70;99.90;;;;;;5073983;28;20476;-50
2024/01/27 01:10:41;;;;;;;9.50;1.87;;;4.60;99.90;;;;;;5073993;28;20507;-50
2024/01/27 01:13:06;;;;;;;13.60;2.57;;;4.70;99.90;;;;;;5074161;28;20052;-52
2024/01/27 01:15:32;;;;;;;10.53;1.40;;;4.70;99.90;;;;;;5073871;28;20044;-49
2024/01/27 01:17:58;;;;;;;9.77;1.57;;;4.60;99.90;;;;;;5072742;28;20106;-49
2024/01/27 01:20:25;;;;;;;9.03;1.43;;;4.70;99.90;;;;;;5073860;28;20474;-50
2024/01/27 01:22:51;;;;;;;11.60;1.60;;;4.60;99.90;;;;;;5073851;28;20044;-50
2024/01/27 01:25:17;;;;;;;7.90;1.20;;;4.70;99.90;;;;;;5073924;28;20500;-51
2024/01/27 01:27:43;;;;;;;11.73;1.73;;;4.70;99.90;;;;;;5073783;28;20048;-52
2024/01/27 01:30:09;;;;;;;10.70;1.60;;;4.60;99.90;;;;;;5073763;28;20131;-50
2024/01/27 01:32:35;;;;;;;7.65;1.35;;;4.70;99.90;;;;;;5074198;28;20048;-49
2024/01/27 01:35:01;;;;;;;12.90;1.43;;;4.70;99.90;;;;;;5073715;28;20109;-51
2024/01/27 01:37:26;;;;;;;12.20;1.37;;;4.60;99.90;;;;;;5073787;28;20052;-51
2024/01/27 01:39:52;;;;;;;9.00;1.47;;;4.60;99.90;;;;;;5073718;28;20048;-52
2024/01/27 01:42:20;;;;;;;12.73;1.80;;;4.60;99.90;;;;;;5073547;28;20530;-52
2024/01/27 01:44:45;;;;;;;11.45;1.52;;;4.60;99.90;;;;;;5073585;28;20048;-50
2024/01/27 01:47:11;;;;;;;13.27;1.50;;;4.60;99.90;;;;;;5073486;28;20058;-50
2024/01/27 01:49:37;;;;;;;11.23;1.65;;;4.60;99.90;;;;;;5073164;28;20058;-49
2024/01/27 01:52:03;;;;;;;11.00;2.13;;;4.60;99.90;;;;;;5073646;28;20036;-50
2024/01/27 01:54:30;;;;;;;8.82;1.73;;;4.50;99.90;;;;;;5073502;28;20109;-53
2024/01/27 01:56:58;;;;;;;10.23;1.45;;;4.60;99.90;;;;;;5073536;28;20455;-50
2024/01/27 01:59:24;;;;;;;12.05;1.23;;;4.50;99.90;;;;;;5073543;28;20120;-52
2024/01/27 02:01:50;;;;;;;8.33;1.50;;;4.50;99.90;;;;;;5073399;28;20522;-52
2024/01/27 02:04:16;;;;;;;13.67;1.67;;;4.60;99.90;;;;;;5073201;28;20040;-53
2024/01/27 02:06:41;;;;;;;10.97;1.40;;;4.50;99.90;;;;;;5073327;28;20052;-52
2024/01/27 02:09:07;;;;;;;11.27;2.20;;;4.50;99.90;;;;;;5074821;28;20044;-52
2024/01/27 02:11:33;;;;;;;7.10;1.10;;;4.60;99.90;;;;;;5077469;28;20079;-51
2024/01/27 02:13:58;;;;;;;12.43;1.70;;;4.60;99.90;;;;;;5077335;28;20047;-52
2024/01/27 02:16:24;;;;;;;10.20;1.50;;;4.60;99.90;;;;;;5077095;28;20055;-52
2024/01/27 02:18:50;;;;;;;8.23;1.57;;;4.60;99.90;;;;;;5077782;28;20049;-52
2024/01/27 02:21:15;;;;;;;8.50;1.47;;;4.60;99.90;;;;;;5077353;28;20067;-52
2024/01/27 02:23:41;;;;;;;10.43;1.50;;;4.60;99.90;;;;;;5077203;28;20101;-51
2024/01/27 02:26:07;;;;;;;9.33;1.10;;;4.60;99.90;;;;;;5077211;28;20110;-51
2024/01/27 02:28:33;;;;;;;9.00;1.23;;;4.60;99.90;;;;;;5092735;28;20128;-52
2024/01/27 02:31:02;;;;;;;5.32;0.95;;;4.60;99.90;;;;;;5075735;28;20051;-49
2024/01/27 02:33:28;;;;;;;8.30;1.48;;;4.60;99.90;;;;;;5075621;28;20560;-52
2024/01/27 02:35:54;;;;;;;8.20;1.58;;;4.60;99.90;;;;;;5075988;28;20056;-51
2024/01/27 02:38:20;;;;;;;7.03;1.60;;;4.60;99.90;;;;;;5076812;28;20070;-49
2024/01/27 02:40:46;;;;;;;7.13;1.10;;;4.60;99.90;;;;;;5076763;28;20527;-49
2024/01/27 02:43:12;;;;;;;6.20;1.17;;;4.60;99.90;;;;;;5076930;28;20278;-49
2024/01/27 02:45:37;;;;;;;5.37;1.00;;;4.60;99.90;;;;;;5076546;28;20056;-49
2024/01/27 02:48:03;;;;;;;11.33;1.87;;;4.60;99.90;;;;;;5076587;28;20119;-50
2024/01/27 02:50:29;;;;;;;10.67;1.57;;;4.60;99.90;;;;;;5076005;28;20044;-49
2024/01/27 02:52:55;;;;;;;13.20;1.40;;;4.60;99.90;;;;;;5076589;28;20052;-49
2024/01/27 02:55:20;;;;;;;9.37;1.40;;;4.60;99.90;;;;;;5076347;28;20048;-49
2024/01/27 02:57:46;;;;;;;6.13;1.00;;;4.60;99.90;;;;;;5076600;28;20131;-50
2024/01/27 03:00:12;;;;;;;9.67;1.40;;;4.70;99.90;;;;;;5076300;28;20503;-48
2024/01/27 03:02:37;;;;;;;7.70;1.73;;;4.60;99.90;;;;;;5076409;28;20051;-49
2024/01/27 03:05:03;;;;;;;9.10;1.57;;;4.50;99.90;;;;;;5076392;28;20109;-49
2024/01/27 03:07:29;;;;;;;11.77;1.75;;;4.60;99.90;;;;;;5076392;28;20114;-52
2024/01/27 03:09:55;;;;;;;8.60;1.30;;;4.60;99.90;;;;;;5076501;28;20476;-49
2024/01/27 03:12:22;;;;;;;6.30;1.20;;;4.60;99.90;;;;;;5076320;28;20040;-49
2024/01/27 03:14:49;;;;;;;10.77;1.20;;;4.50;99.90;;;;;;5075093;28;20129;-48
2024/01/27 03:17:15;;;;;;;10.27;1.48;;;4.50;99.90;;;;;;5058538;28;20048;-49
2024/01/27 03:19:41;;;;;;;10.15;1.38;;;4.50;99.90;;;;;;5076242;28;20400;-49
2024/01/27 03:22:07;;;;;;;8.67;1.10;;;4.50;99.90;;;;;;5076327;28;20041;-48
2024/01/27 03:24:32;;;;;;;12.10;1.97;;;4.60;99.90;;;;;;5076268;28;20383;-49
2024/01/27 03:26:58;;;;;;;18.43;1.37;;;4.60;99.90;;;;;;5075996;28;20449;-48
2024/01/27 03:29:24;;;;;;;7.33;1.33;;;4.50;99.90;;;;;;5075662;28;20049;-48
2024/01/27 03:31:50;;;;;;;8.57;1.23;;;4.50;99.90;;;;;;5075771;28;20064;-49
2024/01/27 03:34:17;;;;;;;9.00;1.40;;;4.50;99.90;;;;;;5076315;28;20149;-48
2024/01/27 03:36:43;;;;;;;12.85;1.77;;;4.50;99.90;;;;;;5075737;28;20044;-51
2024/01/27 03:39:09;;;;;;;10.23;1.70;;;4.50;99.90;;;;;;5075995;28;20106;-49
2024/01/27 03:41:34;;;;;;;9.17;1.30;;;4.50;99.90;;;;;;5075815;28;20460;-49
2024/01/27 03:44:00;;;;;;;8.73;1.67;;;4.50;99.90;;;;;;5074546;28;20048;-48
2024/01/27 03:46:26;;;;;;;11.17;1.73;;;4.50;99.90;;;;;;5091431;28;20063;-49
2024/01/27 03:48:52;;;;;;;7.28;1.77;;;4.50;99.90;;;;;;5075616;28;20067;-49
2024/01/27 03:51:18;;;;;;;11.00;1.23;;;4.50;99.90;;;;;;5075655;28;20436;-49
2024/01/27 03:53:45;;;;;;;11.80;1.77;;;4.50;99.90;;;;;;5075644;28;20136;-49
2024/01/27 03:56:14;;;;;;;8.02;1.20;;;4.50;99.90;;;;;;5075381;28;20048;-49
2024/01/27 03:58:39;;;;;;;10.05;1.60;;;4.50;99.90;;;;;;5075295;28;20136;-50
2024/01/27 04:01:05;;;;;;;8.97;1.40;;;4.50;99.90;;;;;;5075477;28;20128;-49
2024/01/27 04:03:31;;;;;;;7.67;1.77;;;4.50;99.90;;;;;;5075382;28;20044;-49
2024/01/27 04:05:56;;;;;;;8.47;1.20;;;4.50;99.90;;;;;;5074340;28;20455;-48
2024/01/27 04:08:22;;;;;;;6.23;1.10;;;4.50;99.90;;;;;;5075237;28;20079;-49
2024/01/27 04:10:48;;;;;;;5.63;1.27;;;4.40;99.90;;;;;;5075158;28;20403;-48
2024/01/27 04:13:13;;;;;;;9.53;1.73;;;4.50;99.90;;;;;;5075083;28;20052;-49
2024/01/27 04:15:39;;;;;;;9.87;1.43;;;4.50;99.90;;;;;;5074683;28;20044;-50
2024/01/27 04:18:08;;;;;;;13.97;1.57;;;4.50;99.90;;;;;;5073732;28;20056;-51
2024/01/27 04:20:34;;;;;;;13.88;1.30;;;4.50;99.90;;;;;;5074860;28;20460;-49
2024/01/27 04:23:00;;;;;;;9.82;1.55;;;4.50;99.90;;;;;;5074787;28;20075;-50
2024/01/27 04:25:26;;;;;;;6.37;1.43;;;4.60;99.90;;;;;;5075018;28;20044;-50
2024/01/27 04:27:51;;;;;;;12.47;2.60;;;4.60;99.90;;;;;;5073527;28;20138;-49
2024/01/27 04:30:17;;;;;;;6.33;1.10;;;4.60;99.90;;;;;;5073483;28;20048;-48
2024/01/27 04:32:43;;;;;;;8.83;1.80;;;4.60;99.90;;;;;;5074140;28;20049;-49
2024/01/27 04:35:10;;;;;;;8.03;1.40;;;4.50;99.90;;;;;;5074690;28;20044;-49
2024/01/27 04:37:35;;;;;;;;;;;4.50;99.90;;;;;;5075017;28;20117;-49
2024/01/27 04:40:01;;;;;;;7.65;1.40;;;4.50;99.90;;;;;;5074334;28;20368;-52
2024/01/27 04:42:26;;;;;;;7.97;1.50;;;4.50;99.90;;;;;;5074434;28;20067;-51
2024/01/27 04:44:52;;;;;;;11.60;1.40;;;4.60;99.90;;;;;;5074553;28;20392;-52
2024/01/27 04:47:18;;;;;;;11.50;1.67;;;4.50;99.90;;;;;;5074334;28;20041;-52
2024/01/27 04:49:44;;;;;;;11.47;1.47;;;4.50;99.90;;;;;;5073199;28;20131;-52
2024/01/27 04:52:09;;;;;;;12.50;1.50;;;4.50;99.90;;;;;;5074407;28;20479;-48
2024/01/27 04:54:36;;;;;;;10.17;1.80;;;4.50;99.90;;;;;;5074569;28;20437;-50
2024/01/27 04:57:02;;;;;;;5.60;1.42;;;4.50;99.90;;;;;;5074124;28;20048;-52
2024/01/27 04:59:27;;;;;;;8.77;1.50;;;4.50;99.90;;;;;;5073998;28;20097;-51
2024/01/27 05:01:53;;;;;;;11.40;1.47;;;4.50;99.90;;;;;;5074232;28;20052;-52
2024/01/27 05:04:19;;;;;;;5.70;1.53;;;4.50;99.90;;;;;;5074177;28;20055;-51
2024/01/27 05:06:49;;;;;;;8.77;1.33;;;4.40;99.90;;;;;;5073817;28;20049;-52
2024/01/27 05:09:16;;;;;;;14.80;1.77;;;4.40;99.90;;;;;;5073380;28;20052;-49
2024/01/27 05:11:45;;;;;;;9.02;1.20;;;4.40;99.90;;;;;;5073842;28;20049;-50
2024/01/27 05:14:11;;;;;;;10.05;1.25;;;4.30;99.90;;;;;;5073018;28;20045;-52
2024/01/27 05:16:37;;;;;;;6.53;1.20;;;4.30;99.90;;;;;;5074012;28;20055;-49
2024/01/27 05:19:02;;;;;;;7.23;1.20;;;4.40;99.90;;;;;;5074220;28;20045;-48
2024/01/27 05:21:28;;;;;;;7.07;1.20;;;4.30;99.90;;;;;;5074016;28;20087;-49
2024/01/27 05:23:54;;;;;;;10.50;1.40;;;4.30;99.90;;;;;;5073939;28;20044;-49
2024/01/27 05:26:21;;;;;;;12.65;1.20;;;4.30;99.90;;;;;;5073662;28;20173;-49
2024/01/27 05:28:46;;;;;;;9.07;1.27;;;4.20;99.90;;;;;;5073793;28;20450;-49
2024/01/27 05:31:12;;;;;;;10.70;1.80;;;4.30;99.90;;;;;;5073603;28;20040;-50
2024/01/27 05:33:41;;;;;;;7.20;1.20;;;4.30;99.90;;;;;;5073676;28;20057;-48
2024/01/27 05:36:07;;;;;;;7.28;1.70;;;4.20;99.90;;;;;;5073713;28;20083;-48
2024/01/27 05:38:33;;;;;;;10.10;1.50;;;4.30;99.90;;;;;;5073664;28;20513;-49
2024/01/27 05:41:01;;;;;;;7.33;1.23;;;4.20;99.90;;;;;;5072568;28;20042;-50
2024/01/27 05:43:26;;;;;;;8.63;1.38;;;4.20;99.90;;;;;;5073881;28;20049;-48
2024/01/27 05:45:53;;;;;;;7.47;1.50;;;4.20;99.90;;;;;;5074129;28;20056;-48
2024/01/27 05:48:18;;;;;;;10.40;1.63;;;4.30;99.90;;;;;;5072490;28;20127;-49
2024/01/27 05:50:54;;;;;;;13.83;1.67;;;4.20;99.90;;;;;;5073563;28;20132;-49
2024/01/27 05:53:19;;;;;;;9.73;1.90;;;4.30;99.90;;;;;;5073741;28;20131;-49
2024/01/27 05:55:47;;;;;;;7.47;1.20;;;4.20;99.90;;;;;;5073321;28;20088;-48
2024/01/27 05:58:12;;;;;;;8.63;1.42;;;4.20;99.90;;;;;;5073542;28;20077;-48
2024/01/27 06:00:38;;;;;;;8.27;1.50;;;4.20;99.90;;;;;;5072542;28;20499;-49
2024/01/27 06:03:04;;;;;;;7.93;1.33;;;4.20;99.90;;;;;;5073422;28;20067;-49
2024/01/27 06:05:29;;;;;;;6.90;1.33;;;4.10;99.90;;;;;;5073337;28;20067;-49
2024/01/27 06:07:55;;;;;;;9.07;1.87;;;4.10;99.90;;;;;;5073234;28;20047;-49
2024/01/27 06:10:21;;;;;;;11.50;1.13;;;4.10;99.90;;;;;;5073376;28;20496;-48
2024/01/27 06:12:47;;;;;;;8.10;1.30;;;4.10;99.90;;;;;;5073408;28;20052;-48
2024/01/27 06:15:12;;;;;;;5.87;0.97;;;4.10;99.90;;;;;;5072210;28;20498;-50
2024/01/27 06:17:38;;;;;;;10.00;1.27;;;4.10;99.90;;;;;;5072408;28;20056;-49
2024/01/27 06:20:04;;;;;;;11.13;1.63;;;4.00;99.90;;;;;;5073541;28;20506;-48
2024/01/27 06:22:32;;;;;;;13.32;1.20;;;4.00;99.90;;;;;;5073364;28;20056;-48
2024/01/27 06:24:58;;;;;;;6.57;1.25;;;4.00;99.90;;;;;;5073112;28;20047;-49
2024/01/27 06:27:24;;;;;;;8.33;1.13;;;4.00;99.90;;;;;;5073327;28;20049;-48
2024/01/27 06:29:50;;;;;;;10.43;1.30;;;4.00;99.90;;;;;;5073318;28;20066;-49
2024/01/27 06:32:15;;;;;;;12.50;1.87;;;4.00;99.90;;;;;;5072874;28;20053;-50
2024/01/27 06:34:41;;;;;;;9.90;2.10;;;4.00;99.90;;;;;;5073071;28;20055;-49
2024/01/27 06:37:07;;;;;;;7.70;1.13;;;4.00;99.90;;;;;;5073133;28;20078;-49
2024/01/27 06:39:33;;;;;;;6.07;1.00;;;4.00;99.90;;;;;;5072941;28;20473;-48
2024/01/27 06:41:58;;;;;;;9.60;1.63;;;3.90;99.90;;;;;;5073161;28;20123;-49
2024/01/27 06:44:24;;;;;;;7.20;1.20;;;3.90;99.90;;;;;;5073112;28;20094;-48
2024/01/27 06:46:50;;;;;;;12.00;1.73;;;3.90;99.90;;;;;;5073012;28;20102;-49
2024/01/27 06:49:16;;;;;;;10.37;1.40;;;3.90;99.90;;;;;;5072793;28;20037;-49
2024/01/27 06:51:43;;;;;;;8.93;1.40;;;4.00;99.90;;;;;;5072917;28;20437;-48
2024/01/27 06:54:09;;;;;;;;;;;3.90;99.90;;;;;;5073303;28;20055;-49
2024/01/27 06:56:34;;;;;;;6.15;1.13;;;3.90;99.90;;;;;;5077090;28;20014;-49
2024/01/27 06:59:00;;;;;;;9.50;1.50;;;3.90;99.90;;;;;;5076871;28;20045;-49
2024/01/27 07:01:26;;;;;;;9.07;2.23;;;3.90;99.90;;;;;;5076714;28;20092;-48
2024/01/27 07:03:52;;;;;;;6.17;1.17;;;3.90;99.90;;;;;;5076515;28;20048;-48
2024/01/27 07:06:17;;;;;;;7.00;1.40;;;3.90;99.90;;;;;;5076460;28;20498;-50
2024/01/27 07:08:44;;;;;;;7.77;1.33;;;3.90;99.90;;;;;;5076302;28;20040;-48
2024/01/27 07:11:09;;;;;;;7.40;1.58;;;3.90;99.90;;;;;;5076388;28;20044;-49
2024/01/27 07:13:35;;;;;;;5.40;0.97;;;3.90;99.90;;;;;;5076347;28;20060;-48
2024/01/27 07:16:01;;;;;;;9.77;1.50;;;3.90;99.90;;;;;;5076339;28;20048;-48
2024/01/27 07:18:27;;;;;;;8.37;2.17;;;3.90;99.90;;;;;;5076200;28;20084;-49
2024/01/27 07:20:54;;;;;;;9.10;1.50;;;3.90;99.90;;;;;;5076139;28;20480;-49
2024/01/27 07:23:20;;;;;;;6.40;1.48;;;3.90;99.90;;;;;;5076075;28;20454;-48
2024/01/27 07:25:46;;;;;;;9.03;1.67;;;3.90;99.90;;;;;;5076619;28;20044;-49
2024/01/27 07:28:12;;;;;;;5.43;1.00;;;3.90;99.90;;;;;;5075071;28;20045;-49
2024/01/27 07:30:38;;;;;;;9.77;1.70;;;3.90;99.90;;;;;;5075956;28;20048;-51
2024/01/27 07:33:04;;;;;;;11.93;1.58;;;4.00;99.90;;;;;;5075627;28;20287;-49
2024/01/27 07:35:31;;;;;;;10.13;1.30;;;4.00;99.90;;;;;;5075864;28;20041;-49
2024/01/27 07:37:57;;;;;;;13.10;1.25;;;4.00;99.90;;;;;;5075740;28;20053;-50
2024/01/27 07:40:23;;;;;;;11.67;2.13;;;4.00;99.90;;;;;;5075606;28;20055;-52
2024/01/27 07:42:48;;;;;;;11.27;1.60;;;4.00;99.90;;;;;;5075885;28;20044;-51
2024/01/27 07:45:15;;;;;;;13.83;1.77;;;4.00;99.90;;;;;;5075995;28;20392;-52
2024/01/27 07:47:41;;;;;;;9.63;1.40;;;4.00;99.90;;;;;;5074639;28;20495;-51
2024/01/27 07:50:09;;;;;;;15.80;2.03;;;4.00;99.90;;;;;;5075642;28;20044;-51
2024/01/27 07:52:35;;;;;;;13.02;1.70;;;4.00;99.90;;;;;;5075577;28;20048;-52
2024/01/27 07:55:01;;;;;;;7.40;1.75;;;4.00;99.90;;;;;;5075358;28;20495;-52
2024/01/27 07:57:28;;;;;;;5.30;1.10;;;4.10;99.90;;;;;;5075462;28;20045;-51
2024/01/27 07:59:53;;;;;;;7.97;1.73;;;4.00;99.90;;;;;;5075548;28;20450;-50
2024/01/27 08:02:19;;;;;;;11.80;1.90;;;4.10;99.90;;;;;;5074105;28;20084;-49
2024/01/27 08:04:45;;;;;;;9.97;1.90;;;4.00;99.90;;;;;;5057696;28;20095;-51
2024/01/27 08:07:10;;;;;;;8.97;1.50;;;4.10;99.90;;;;;;5074158;28;20078;-50
2024/01/27 08:09:37;;;;;;;7.60;1.63;;;4.10;99.90;;;;;;5075599;28;20041;-48
2024/01/27 08:12:03;;;;;;;7.97;1.08;;;4.10;99.90;;;;;;5075191;28;20084;-49
2024/01/27 08:14:29;;;;;;;7.87;1.40;;;4.20;99.90;;;;;;5075255;28;20408;-48
2024/01/27 08:16:56;;;;;;;9.73;1.50;;;4.20;99.90;;;;;;5074082;28;20287;-48
2024/01/27 08:19:24;;;;;;;11.05;1.73;;;4.20;99.90;;;;;;5075066;28;20036;-48
2024/01/27 08:21:49;;;;;;;10.82;1.65;;;4.20;99.90;;;;;;5074682;28;20544;-48
2024/01/27 08:24:15;;;;;;;10.93;1.80;;;4.20;99.90;;;;;;5074967;28;20131;-48
2024/01/27 08:26:42;;;;;;;12.20;1.83;;;4.30;99.90;;;;;;5074064;28;20132;-49
2024/01/27 08:29:09;;;;;;;12.82;2.50;;;4.30;99.90;;;;;;5074805;28;20051;-48
2024/01/27 08:31:34;;;;;;;10.10;1.92;;;4.30;99.90;;;;;;5074782;28;20140;-48
2024/01/27 08:34:00;;;;;;;9.27;1.70;;;4.40;99.90;;;;;;5074691;28;20170;-48
2024/01/27 08:36:26;;;;;;;8.03;1.30;;;4.30;99.90;;;;;;5073548;28;20056;-48
2024/01/27 08:38:51;;;;;;;10.67;2.23;;;4.40;99.90;;;;;;5074855;28;20043;-48
2024/01/27 08:41:17;;;;;;;10.07;1.97;;;4.40;99.90;;;;;;5074723;28;20545;-48
2024/01/27 08:43:43;;;;;;;9.07;1.73;;;4.50;99.90;;;;;;5074702;28;20396;-49
2024/01/27 08:46:11;;;;;;;7.53;1.40;;;4.50;99.90;;;;;;5074634;28;20110;-48
2024/01/27 08:48:38;;;;;;;7.95;1.55;;;4.50;99.90;;;;;;5074155;28;20392;-49
2024/01/27 08:51:04;;;;;;;9.73;2.10;;;4.50;99.90;;;;;;5073630;28;20516;-49
2024/01/27 08:53:29;;;;;;;10.77;2.03;;;4.50;99.90;;;;;;5074436;28;20083;-49
2024/01/27 08:55:55;;;;;;;9.57;2.23;;;4.60;99.90;;;;;;5074239;28;20053;-48
2024/01/27 08:58:21;;;;;;;7.37;1.60;;;4.60;99.90;;;;;;5074286;28;20048;-48
2024/01/27 09:00:46;;;;;;;17.60;2.27;;;4.70;99.90;;;;;;5074327;28;20044;-49
2024/01/27 09:03:14;;;;;;;8.73;2.47;;;4.70;99.90;;;;;;5073079;28;20084;-49
2024/01/27 09:05:41;;;;;;;7.97;1.55;;;4.80;99.90;;;;;;5073939;28;20055;-50
2024/01/27 09:08:07;;;;;;;8.60;1.80;;;4.70;99.90;;;;;;5074066;28;20119;-48
2024/01/27 09:10:33;;;;;;;6.93;1.97;;;4.80;99.90;;;;;;5074140;28;20048;-49
2024/01/27 09:12:59;;;;;;;11.37;2.27;;;4.90;99.90;;;;;;5072908;28;20041;-49
2024/01/27 09:15:24;;;;;;;8.30;2.17;;;4.90;99.90;;;;;;5073896;28;20055;-49
2024/01/27 09:17:50;;;;;;;8.77;2.97;;;5.00;99.90;;;;;;5072484;28;20169;-48
2024/01/27 09:20:16;;;;;;;10.33;2.10;;;5.00;99.90;;;;;;5073768;28;20036;-50
2024/01/27 09:22:41;;;;;;;10.73;2.67;;;5.10;99.90;;;;;;5074014;28;20060;-48
2024/01/27 09:25:08;;;;;;;10.83;2.70;;;5.10;99.90;;;;;;5073742;28;20044;-49
2024/01/27 09:27:34;;;;;;;12.98;2.40;;;5.10;99.90;;;;;;5074145;28;20044;-51
2024/01/27 09:29:59;;;;;;;11.97;2.57;;;5.10;99.90;;;;;;5073769;28;20497;-49
2024/01/27 09:32:25;;;;;;;10.30;2.03;;;5.20;99.90;;;;;;5074012;28;20064;-51
2024/01/27 09:34:53;;;;;;;7.33;1.97;;;5.20;99.90;;;;;;5073476;28;20411;-50
2024/01/27 09:37:19;;;;;;;8.35;2.00;;;5.20;99.90;;;;;;5072604;28;20056;-48
2024/01/27 09:39:45;;;;;;;9.00;2.63;;;5.20;99.90;;;;;;5073811;28;20045;-49
2024/01/27 09:42:16;;;;;;;9.43;2.00;;;5.20;99.90;;;;;;5072429;28;20475;-49
2024/01/27 09:44:49;;;;;;;10.48;2.10;;;5.30;99.90;;;;;;5073556;28;20408;-49
2024/01/27 09:47:15;;;;;;;10.13;2.35;;;5.30;99.90;;;;;;5073459;28;20059;-48
2024/01/27 09:49:42;;;;;;;;;;;5.40;99.90;;;;;;5073824;28;20480;-49
2024/01/27 09:52:08;;;;;;;7.93;2.20;;;5.40;99.90;;;;;;5073637;28;19927;-49
2024/01/27 09:54:34;;;;;;;8.97;2.50;;;5.50;99.90;;;;;;5073614;28;20044;-50
2024/01/27 09:57:01;;;;;;;12.93;2.88;;;5.50;99.90;;;;;;5073610;28;20049;-48
2024/01/27 09:59:27;;;;;;;11.15;2.83;;;5.50;99.90;;;;;;5073468;28;20514;-51
2024/01/27 10:01:54;;;;;;;12.25;2.17;;;5.50;99.90;;;;;;5072411;28;20052;-49
2024/01/27 10:04:21;;;;;;;11.02;2.25;;;5.60;99.90;;;;;;5073548;28;20052;-48
2024/01/27 10:06:50;;;;;;;8.52;2.47;;;5.60;99.90;;;;;;5072313;28;20048;-49
2024/01/27 10:09:16;;;;;;;12.77;3.17;;;5.70;99.90;;;;;;5073575;28;20037;-49
2024/01/27 10:11:47;;;;;;;7.38;2.17;;;5.70;99.90;;;;;;5072307;28;20128;-49
2024/01/27 10:14:12;;;;;;;9.90;2.53;;;5.80;99.90;;;;;;5073317;28;20079;-48
2024/01/27 10:16:45;;;;;;;9.50;2.97;;;5.80;99.90;;;;;;5073787;28;20507;-49
2024/01/27 10:19:21;;;;;;;11.23;2.60;;;5.80;99.90;;;;;;5073357;28;20040;-53
2024/01/27 10:21:47;;;;;;;11.27;3.13;;;5.90;99.90;;;;;;5073447;28;20075;-51
2024/01/27 10:24:13;;;;;;;14.93;3.42;;;5.90;99.90;;;;;;5073279;28;20400;-50
2024/01/27 10:26:39;;;;;;;9.30;2.88;;;6.00;99.90;;;;;;5073186;28;20040;-50
2024/01/27 10:29:04;;;;;;;10.83;2.70;;;6.10;99.90;;;;;;5072913;28;20128;-52
2024/01/27 10:31:36;;;;;;;10.30;2.10;;;6.10;99.90;;;;;;5075496;28;20055;-50
2024/01/27 10:34:04;;;;;;;12.52;2.85;;;6.10;99.90;;;;;;5075976;28;20052;-49
2024/01/27 10:36:43;;;;;;;12.80;2.40;;;6.20;99.90;;;;;;5076938;28;20053;-52
2024/01/27 10:39:22;;;;;;;7.65;2.20;;;6.30;99.90;;;;;;5076948;28;20109;-50
2024/01/27 10:41:49;;;;;;;14.65;2.25;;;6.40;99.90;;;;;;5077028;28;20318;-51
2024/01/27 10:44:16;;;;;;;8.40;2.20;;;6.40;99.90;;;;;;5076915;28;20044;-49
2024/01/27 10:46:45;;;;;;;14.38;2.17;;;6.50;99.90;;;;;;5075606;28;20051;-49
2024/01/27 10:49:13;;;;;;;9.82;2.58;;;6.50;99.90;;;;;;5076649;28;20041;-49
2024/01/27 10:51:47;;;;;;;11.55;2.10;;;6.60;99.90;;;;;;5075644;28;20471;-49
2024/01/27 10:54:18;;;;;;;7.60;1.80;;;6.60;99.90;;;;;;5076544;28;20048;-49
2024/01/27 10:56:45;;;;;;;10.02;2.83;;;6.70;99.90;;;;;;5075484;28;20051;-50
2024/01/27 10:59:13;;;;;;;9.13;1.90;;;6.70;99.90;;;;;;5058960;28;20052;-50
2024/01/27 11:01:41;;;;;;;7.57;2.35;;;6.80;99.90;;;;;;5076536;28;20400;-48
2024/01/27 11:04:09;;;;;;;6.53;2.22;;;6.80;99.90;;;;;;5076586;28;20055;-48
2024/01/27 11:06:37;;;;;;;11.13;2.10;;;6.80;99.90;;;;;;5076267;28;20053;-49
2024/01/27 11:09:04;;;;;;;15.57;2.80;;;6.90;99.90;;;;;;5076316;28;20253;-50
2024/01/27 11:11:30;;;;;;;10.65;2.78;;;6.90;99.90;;;;;;5076390;28;20137;-49
2024/01/27 11:13:56;;;;;;;13.25;3.05;;;6.90;99.90;;;;;;5076248;28;20518;-49
2024/01/27 11:16:23;;;;;;;9.03;3.53;;;7.00;99.90;;;;;;5076403;28;20044;-48
2024/01/27 11:18:49;;;;;;;6.18;2.17;;;7.00;99.90;;;;;;5075282;28;20052;-48
2024/01/27 11:21:16;;;;;;;12.13;3.20;;;7.00;99.90;;;;;;5076220;28;20056;-48
2024/01/27 11:23:42;;;;;;;13.63;2.17;;;7.10;99.90;;;;;;5075954;28;20484;-49
2024/01/27 11:26:09;;;;;;;12.32;2.47;;;7.10;99.90;;;;;;5076232;28;20099;-49
2024/01/27 11:28:36;;;;;;;7.80;2.20;;;7.10;99.90;;;;;;5075994;28;20131;-48
2024/01/27 11:31:08;;;;;;;;;;;7.20;99.90;;;;;;5076325;28;20051;-49
2024/01/27 11:33:33;;;;;;;8.88;2.63;;;7.20;99.90;;;;;;5075721;28;19959;-48
2024/01/27 11:36:04;;;;;;;9.77;2.30;;;7.20;99.90;;;;;;5076018;28;20067;-49
2024/01/27 11:38:31;;;;;;;10.68;1.90;;;7.30;99.90;;;;;;5076045;28;20055;-49
2024/01/27 11:40:57;;;;;;;8.90;2.10;;;7.30;99.90;;;;;;5075790;28;20135;-48
2024/01/27 11:43:22;;;;;;;7.60;2.27;;;7.40;99.90;;;;;;5076037;28;20146;-48
2024/01/27 11:46:01;;;;;;;9.50;3.57;;;7.40;99.90;;;;;;5075828;28;20048;-49
2024/01/27 11:48:29;;;;;;;16.15;2.42;;;7.50;99.90;;;;;;5074332;28;20127;-48
2024/01/27 11:51:10;;;;;;;9.55;2.22;;;7.50;99.90;;;;;;5075688;28;20084;-49
2024/01/27 11:53:36;;;;;;;14.32;2.67;;;7.60;99.90;;;;;;5075371;28;20534;-48
2024/01/27 11:56:04;;;;;;;8.43;2.10;;;7.60;99.90;;;;;;5075678;28;20045;-49
2024/01/27 11:58:30;;;;;;;7.45;2.38;;;7.70;99.90;;;;;;5075386;28;20040;-48
2024/01/27 12:00:59;;;;;;;11.90;2.50;;;7.70;99.90;;;;;;5075388;28;20052;-49
2024/01/27 12:03:25;;;;;;;8.15;1.98;;;7.70;99.90;;;;;;5074255;28;20384;-49
2024/01/27 12:05:51;;;;;;;12.68;2.63;;;7.80;99.90;;;;;;5075622;28;20476;-50
2024/01/27 12:08:17;;;;;;;7.65;2.15;;;7.80;99.90;;;;;;5075286;28;20400;-48
2024/01/27 12:10:43;;;;;;;6.60;2.20;;;7.80;99.90;;;;;;5075137;28;20049;-48
2024/01/27 12:13:09;;;;;;;10.40;2.07;;;7.90;99.90;;;;;;5075077;28;20055;-48
2024/01/27 12:15:35;;;;;;;10.37;1.70;;;7.90;99.90;;;;;;5074895;28;20094;-48
2024/01/27 12:18:01;;;;;;;4.85;1.35;;;8.00;99.90;;;;;;5075558;28;20062;-48
2024/01/27 12:20:27;;;;;;;6.57;1.43;;;8.00;99.90;;;;;;5075016;28;20052;-48
2024/01/27 12:23:06;;;;;;;8.47;1.40;;;8.00;99.90;;;;;;5075170;28;20045;-49
2024/01/27 12:25:32;;;;;;;7.30;1.50;;;8.00;99.90;;;;;;5074877;28;20052;-49
2024/01/27 12:28:02;;;;;;;8.90;1.50;;;8.10;99.90;;;;;;5074468;28;20499;-49
2024/01/27 12:30:28;;;;;;;6.60;1.75;;;8.00;99.90;;;;;;5075493;28;20052;-48
2024/01/27 12:32:53;;;;;;;11.77;1.40;;;8.10;99.90;;;;;;5074609;28;20135;-48
2024/01/27 12:35:19;;;;;;;10.33;1.40;;;8.10;99.90;;;;;;5074723;28;20122;-49
2024/01/27 12:37:45;;;;;;;10.50;1.40;;;8.20;99.90;;;;;;5074706;28;20095;-50
2024/01/27 12:40:19;;;;;;;9.80;1.97;;;8.20;99.90;;;;;;5074617;28;20045;-49
2024/01/27 12:42:44;;;;;;;6.50;1.20;;;8.20;99.90;;;;;;5074979;28;20700;-49
2024/01/27 12:45:10;;;;;;;11.63;2.00;;;8.20;99.90;;;;;;5074020;28;20057;-49
2024/01/27 12:47:36;;;;;;;9.80;1.23;;;8.20;99.90;;;;;;5074761;28;20091;-49